Time;durP1;ratioP1;P1;durP2;ratioP2;P2;SDS_P1;SDS_P2;PMS_P1;PMS_P2;Temp;Humidity;BMP_temperature;BMP_pressure;BME280_temperature;BME280_humidity;BME280_pressure;Samples;Min_cycle;Max_cycle;Signal;HPM_P1;HPM_P2
2022/06/08 00:01:30;;;;;;;27.60;19.67;;;;;;;;;;5053865;28;20266;-68
2022/06/08 00:03:57;;;;;;;32.63;19.90;;;;;;;;;;5053312;28;20189;-68
2022/06/08 00:06:23;;;;;;;27.20;19.87;;;;;;;;;;5053674;28;20174;-67
2022/06/08 00:08:49;;;;;;;30.37;20.70;;;;;;;;;;5053837;28;20201;-67
2022/06/08 00:11:16;;;;;;;27.37;19.97;;;;;;;;;;5036416;28;20190;-67
2022/06/08 00:13:42;;;;;;;29.67;20.83;;;;;;;;;;5054106;28;20252;-67
2022/06/08 00:16:09;;;;;;;30.13;20.77;;;;;;;;;;5053528;28;20260;-69
2022/06/08 00:18:35;;;;;;;30.37;19.83;;;;;;;;;;5053726;28;20205;-67
2022/06/08 00:21:01;;;;;;;33.93;21.77;;;;;;;;;;5035615;28;20551;-68
2022/06/08 00:23:27;;;;;;;30.13;20.80;;;;;;;;;;5053647;28;20207;-68
2022/06/08 00:25:53;;;;;;;31.53;21.27;;;;;;;;;;5035556;28;20178;-68
2022/06/08 00:28:19;;;;;;;31.43;21.53;;;;;;;;;;5053383;28;20199;-68
2022/06/08 00:30:45;;;;;;;34.10;22.23;;;;;;;;;;5053541;28;20261;-68
2022/06/08 00:33:11;;;;;;;33.00;22.53;;;;;;;;;;5053679;28;20206;-68
2022/06/08 00:35:37;;;;;;;35.30;24.33;;;;;;;;;;5053885;28;20690;-68
2022/06/08 00:38:03;;;;;;;39.57;23.50;;;;;;;;;;5052944;28;20175;-68
2022/06/08 00:40:40;;;;;;;39.37;23.30;;;;;;;;;;5035402;28;20170;-68
2022/06/08 00:43:06;;;;;;;36.07;23.47;;;;;;;;;;5053746;28;20642;-68
2022/06/08 00:45:32;;;;;;;37.07;24.47;;;;;;;;;;5035348;28;20175;-68
2022/06/08 00:48:03;;;;;;;43.80;25.23;;;;;;;;;;5035192;28;20660;-66
2022/06/08 00:50:39;;;;;;;37.40;23.57;;;;;;;;;;5035233;28;20205;-68
2022/06/08 00:53:05;;;;;;;38.07;24.57;;;;;;;;;;5035215;28;20206;-68
2022/06/08 00:55:32;;;;;;;38.13;23.73;;;;;;;;;;5035356;28;20174;-68
2022/06/08 00:58:01;;;;;;;34.77;22.53;;;;;;;;;;5035059;28;20182;-67
2022/06/08 01:00:38;;;;;;;40.57;23.17;;;;;;;;;;5035202;28;20215;-68
2022/06/08 01:03:05;;;;;;;36.23;22.67;;;;;;;;;;5035124;28;20166;-68
2022/06/08 01:05:35;;;;;;;37.07;23.77;;;;;;;;;;5052842;28;20173;-68
2022/06/08 01:08:13;;;;;;;38.00;22.83;;;;;;;;;;5053154;28;20631;-68
2022/06/08 01:10:46;;;;;;;37.17;22.70;;;;;;;;;;5053019;28;20163;-68
2022/06/08 01:13:12;;;;;;;38.70;22.00;;;;;;;;;;5035439;28;20182;-68
2022/06/08 01:15:40;;;;;;;29.10;20.20;;;;;;;;;;5035371;28;20594;-68
2022/06/08 01:18:06;;;;;;;36.20;20.97;;;;;;;;;;5056608;28;20177;-68
2022/06/08 01:20:33;;;;;;;36.60;21.47;;;;;;;;;;5056993;28;20224;-68
2022/06/08 01:22:59;;;;;;;30.80;19.73;;;;;;;;;;5056689;28;20232;-68
2022/06/08 01:25:25;;;;;;;36.47;20.33;;;;;;;;;;5056626;28;20170;-68
2022/06/08 01:27:51;;;;;;;28.87;18.43;;;;;;;;;;5056904;28;20186;-68
2022/06/08 01:30:25;;;;;;;33.43;20.43;;;;;;;;;;5056485;28;20206;-68
2022/06/08 01:32:57;;;;;;;27.17;18.47;;;;;;;;;;5057059;28;20194;-68
2022/06/08 01:35:42;;;;;;;32.87;19.70;;;;;;;;;;5038697;28;20273;-68
2022/06/08 01:38:14;;;;;;;35.60;19.70;;;;;;;;;;5056428;28;20177;-68
2022/06/08 01:40:48;;;;;;;39.40;21.30;;;;;;;;;;5056860;28;20159;-68
2022/06/08 01:43:26;;;;;;;39.83;21.57;;;;;;;;;;5057222;28;20173;-67
2022/06/08 01:46:02;;;;;;;39.27;22.57;;;;;;;;;;5038899;28;20174;-68
2022/06/08 01:48:57;;;;;;;46.53;22.17;;;;;;;;;;5056527;28;20688;-68
2022/06/08 01:51:32;;;;;;;40.03;21.80;;;;;;;;;;5035596;28;20673;-67
2022/06/08 01:54:07;;;;;;;39.60;21.07;;;;;;;;;;5056502;28;20178;-68
2022/06/08 01:56:36;;;;;;;37.90;21.67;;;;;;;;;;5056762;28;20174;-68
2022/06/08 01:59:34;;;;;;;42.07;21.27;;;;;;;;;;5056263;28;20202;-68
2022/06/08 02:02:16;;;;;;;39.63;21.50;;;;;;;;;;5001910;28;20198;-69
2022/06/08 02:04:45;;;;;;;41.80;21.70;;;;;;;;;;5038561;28;20296;-69
2022/06/08 02:07:18;;;;;;;37.43;20.00;;;;;;;;;;5037991;28;20634;-69
2022/06/08 02:09:50;;;;;;;42.83;21.73;;;;;;;;;;5037866;28;20202;-68
2022/06/08 02:12:16;;;;;;;38.97;21.87;;;;;;;;;;5037929;28;20178;-68
2022/06/08 02:14:48;;;;;;;39.87;21.07;;;;;;;;;;5038008;28;20189;-68
2022/06/08 02:17:27;;;;;;;39.50;21.30;;;;;;;;;;5056611;28;20543;-68
2022/06/08 02:19:55;;;;;;;41.67;21.70;;;;;;;;;;5055694;28;20206;-68
2022/06/08 02:22:24;;;;;;;39.83;20.40;;;;;;;;;;5055581;28;20549;-69
2022/06/08 02:24:58;;;;;;;38.33;20.70;;;;;;;;;;5055928;28;20171;-68
2022/06/08 02:27:33;;;;;;;38.53;20.40;;;;;;;;;;5055099;28;20249;-68
2022/06/08 02:30:03;;;;;;;42.13;20.03;;;;;;;;;;5055448;28;20234;-68
2022/06/08 02:35:28;;;;;;;36.30;18.47;;;;;;;;;;5055941;28;20233;-68
2022/06/08 02:37:56;;;;;;;35.17;17.90;;;;;;;;;;5055520;28;20220;-68
2022/06/08 02:40:26;;;;;;;35.07;17.40;;;;;;;;;;5055203;28;20289;-68
2022/06/08 02:42:54;;;;;;;30.47;16.50;;;;;;;;;;5037438;28;20175;-70
2022/06/08 02:45:40;;;;;;;28.77;16.37;;;;;;;;;;5055286;28;20283;-68
2022/06/08 02:48:09;;;;;;;27.77;15.33;;;;;;;;;;5037080;28;20620;-67
2022/06/08 02:50:36;;;;;;;25.80;14.87;;;;;;;;;;5037364;28;20182;-68
2022/06/08 02:53:17;;;;;;;35.37;17.83;;;;;;;;;;5037146;28;20185;-68
2022/06/08 02:55:58;;;;;;;32.80;16.23;;;;;;;;;;5054950;28;20643;-67
2022/06/08 02:58:28;;;;;;;25.20;14.97;;;;;;;;;;5036978;28;20210;-68
2022/06/08 03:00:58;;;;;;;29.37;16.77;;;;;;;;;;5037030;28;20178;-68
2022/06/08 03:03:31;;;;;;;26.10;16.03;;;;;;;;;;5055029;28;20546;-68
2022/06/08 03:06:00;;;;;;;22.97;14.90;;;;;;;;;;5055010;28;20162;-69
2022/06/08 03:08:30;;;;;;;25.37;14.67;;;;;;;;;;5036857;28;20206;-69
2022/06/08 03:10:59;;;;;;;23.80;13.87;;;;;;;;;;5054715;28;20189;-68
2022/06/08 03:13:26;;;;;;;25.83;14.40;;;;;;;;;;5054985;28;20194;-68
2022/06/08 03:15:59;;;;;;;26.97;15.63;;;;;;;;;;5054741;28;20174;-69
2022/06/08 03:18:25;;;;;;;28.47;13.80;;;;;;;;;;5054466;28;20233;-68
2022/06/08 03:20:52;;;;;;;22.73;13.97;;;;;;;;;;5036654;28;20638;-68
2022/06/08 03:23:18;;;;;;;23.37;13.50;;;;;;;;;;5054724;28;20626;-68
2022/06/08 03:25:44;;;;;;;23.43;13.57;;;;;;;;;;5054558;28;20224;-69
2022/06/08 03:28:12;;;;;;;27.63;13.30;;;;;;;;;;5054630;28;20179;-68
2022/06/08 03:30:39;;;;;;;26.17;13.60;;;;;;;;;;5054305;28;20232;-68
2022/06/08 03:33:05;;;;;;;22.93;13.03;;;;;;;;;;5054925;28;20178;-68
2022/06/08 03:35:31;;;;;;;25.10;13.17;;;;;;;;;;5036663;28;20189;-68
2022/06/08 03:37:59;;;;;;;24.77;12.20;;;;;;;;;;5036074;28;20214;-68
2022/06/08 03:40:25;;;;;;;25.20;13.47;;;;;;;;;;5035782;28;20293;-67
2022/06/08 03:42:51;;;;;;;22.90;11.87;;;;;;;;;;5036235;28;20182;-68
2022/06/08 03:45:17;;;;;;;21.50;12.40;;;;;;;;;;5036219;28;20186;-68
2022/06/08 03:47:45;;;;;;;20.27;11.47;;;;;;;;;;5054518;28;20174;-71
2022/06/08 03:50:13;;;;;;;19.13;11.50;;;;;;;;;;5053882;28;20197;-68
2022/06/08 03:52:43;;;;;;;25.33;12.13;;;;;;;;;;5035955;28;20212;-66
2022/06/08 03:55:10;;;;;;;19.47;10.77;;;;;;;;;;5036059;28;20191;-68
2022/06/08 03:57:36;;;;;;;18.23;11.00;;;;;;;;;;5053898;28;20263;-69
2022/06/08 04:00:03;;;;;;;16.63;11.07;;;;;;;;;;5053602;28;20675;-68
2022/06/08 04:02:30;;;;;;;18.63;11.07;;;;;;;;;;5053710;28;20175;-68
2022/06/08 04:04:56;;;;;;;16.37;11.00;;;;;;;;;;5035852;28;20257;-68
2022/06/08 04:07:22;;;;;;;18.07;10.13;;;;;;;;;;5054216;28;20209;-68
2022/06/08 04:09:48;;;;;;;14.70;10.33;;;;;;;;;;5035884;28;20737;-67
2022/06/08 04:12:14;;;;;;;15.13;9.97;;;;;;;;;;5053600;28;20189;-68
2022/06/08 04:14:40;;;;;;;16.07;9.63;;;;;;;;;;5035513;28;20189;-68
2022/06/08 04:17:07;;;;;;;12.60;9.00;;;;;;;;;;5035910;28;20186;-68
2022/06/08 04:19:33;;;;;;;16.37;10.57;;;;;;;;;;5035560;28;20210;-69
2022/06/08 04:21:59;;;;;;;16.57;10.13;;;;;;;;;;5053855;28;20174;-68
2022/06/08 04:24:26;;;;;;;17.17;9.60;;;;;;;;;;5053473;28;20174;-67
2022/06/08 04:26:52;;;;;;;15.10;10.03;;;;;;;;;;5035485;28;20191;-67
2022/06/08 04:29:18;;;;;;;11.57;9.03;;;;;;;;;;5035406;28;20209;-68
2022/06/08 04:31:45;;;;;;;11.77;9.07;;;;;;;;;;5053375;28;20186;-67
2022/06/08 04:34:12;;;;;;;13.00;8.23;;;;;;;;;;5053580;28;20178;-67
2022/06/08 04:36:38;;;;;;;15.03;8.33;;;;;;;;;;5035655;28;20182;-66
2022/06/08 04:39:05;;;;;;;13.90;9.50;;;;;;;;;;5035009;28;20224;-67
2022/06/08 04:41:32;;;;;;;12.43;8.80;;;;;;;;;;5035436;28;20668;-67
2022/06/08 04:43:58;;;;;;;11.67;8.50;;;;;;;;;;5053463;28;20540;-68
2022/06/08 04:46:25;;;;;;;9.00;7.90;;;;;;;;;;5053491;28;20174;-69
2022/06/08 04:48:51;;;;;;;12.50;8.33;;;;;;;;;;5053400;28;20213;-67
2022/06/08 04:51:17;;;;;;;13.27;8.90;;;;;;;;;;5053281;28;20580;-67
2022/06/08 04:53:45;;;;;;;11.20;8.07;;;;;;;;;;5053722;28;20183;-67
2022/06/08 04:56:11;;;;;;;10.47;7.97;;;;;;;;;;5053481;28;20193;-67
2022/06/08 04:58:37;;;;;;;9.93;7.97;;;;;;;;;;5035468;28;20300;-67
2022/06/08 05:01:04;;;;;;;8.47;6.23;;;;;;;;;;5053279;28;20589;-65
2022/06/08 05:03:30;;;;;;;7.23;6.30;;;;;;;;;;5053578;28;20174;-65
2022/06/08 05:05:57;;;;;;;10.40;6.10;;;;;;;;;;5053319;28;20229;-65
2022/06/08 05:08:23;;;;;;;8.47;5.57;;;;;;;;;;5053127;28;20202;-65
2022/06/08 05:10:50;;;;;;;5.90;4.77;;;;;;;;;;5053277;28;20461;-67
2022/06/08 05:13:17;;;;;;;5.40;4.90;;;;;;;;;;5052884;28;20671;-65
2022/06/08 05:15:43;;;;;;;5.90;4.67;;;;;;;;;;5052871;28;20236;-67
2022/06/08 05:18:11;;;;;;;6.47;4.80;;;;;;;;;;5052995;28;20181;-65
2022/06/08 05:20:37;;;;;;;5.47;4.97;;;;;;;;;;5052836;28;20178;-65
2022/06/08 05:23:04;;;;;;;5.53;5.00;;;;;;;;;;5053165;28;20635;-65
2022/06/08 05:25:31;;;;;;;5.13;4.60;;;;;;;;;;5035138;28;20232;-66
2022/06/08 05:27:58;;;;;;;5.63;5.13;;;;;;;;;;5035207;28;20581;-67
2022/06/08 05:30:25;;;;;;;6.17;5.47;;;;;;;;;;5052787;28;20244;-64
2022/06/08 05:32:51;;;;;;;8.83;5.50;;;;;;;;;;5035089;28;20182;-64
2022/06/08 05:35:17;;;;;;;6.37;5.37;;;;;;;;;;5035311;28;20593;-65
2022/06/08 05:37:43;;;;;;;7.13;5.70;;;;;;;;;;5052773;28;20206;-64
2022/06/08 05:40:10;;;;;;;7.80;5.57;;;;;;;;;;5052700;28;20293;-65
2022/06/08 05:42:36;;;;;;;6.50;5.00;;;;;;;;;;5052890;28;20190;-65
2022/06/08 05:45:03;;;;;;;6.73;5.63;;;;;;;;;;5053081;28;20175;-65
2022/06/08 05:47:29;;;;;;;5.90;5.30;;;;;;;;;;5053027;28;20171;-65
2022/06/08 05:49:55;;;;;;;5.50;5.00;;;;;;;;;;5053250;28;20202;-64
2022/06/08 05:52:21;;;;;;;5.73;5.13;;;;;;;;;;5053229;28;20187;-65
2022/06/08 05:54:47;;;;;;;5.37;4.87;;;;;;;;;;5034742;28;20186;-65
2022/06/08 05:57:13;;;;;;;6.63;4.53;;;;;;;;;;5052596;28;20256;-65
2022/06/08 05:59:39;;;;;;;5.17;4.50;;;;;;;;;;5034679;28;20260;-65
2022/06/08 06:02:07;;;;;;;9.97;4.40;;;;;;;;;;5053467;28;20181;-65
2022/06/08 06:04:33;;;;;;;4.73;4.13;;;;;;;;;;5056129;28;20175;-67
2022/06/08 06:06:59;;;;;;;5.07;3.90;;;;;;;;;;5056047;28;20175;-65
2022/06/08 06:09:26;;;;;;;6.03;4.57;;;;;;;;;;5056103;28;20199;-65
2022/06/08 06:11:52;;;;;;;5.13;3.70;;;;;;;;;;5037918;28;20186;-64
2022/06/08 06:14:18;;;;;;;4.60;4.10;;;;;;;;;;5055933;28;20186;-64
2022/06/08 06:16:44;;;;;;;4.97;4.20;;;;;;;;;;5055784;28;20225;-64
2022/06/08 06:19:10;;;;;;;4.70;3.70;;;;;;;;;;5037725;28;20214;-65
2022/06/08 06:21:36;;;;;;;6.77;4.00;;;;;;;;;;5055840;28;20706;-65
2022/06/08 06:24:04;;;;;;;4.53;3.80;;;;;;;;;;5055715;28;20634;-65
2022/06/08 06:26:30;;;;;;;4.27;2.93;;;;;;;;;;5055620;28;20170;-64
2022/06/08 06:28:57;;;;;;;6.87;3.40;;;;;;;;;;5055486;28;20250;-64
2022/06/08 06:31:25;;;;;;;4.73;3.10;;;;;;;;;;5037558;28;20174;-65
2022/06/08 06:33:51;;;;;;;4.63;3.40;;;;;;;;;;5055660;28;20179;-62
2022/06/08 06:36:17;;;;;;;4.03;3.20;;;;;;;;;;5037542;28;20186;-64
2022/06/08 06:38:43;;;;;;;2.83;2.63;;;;;;;;;;5055350;28;20248;-64
2022/06/08 06:41:09;;;;;;;3.03;2.73;;;;;;;;;;5056165;28;20643;-64
2022/06/08 06:43:35;;;;;;;2.90;2.50;;;;;;;;;;5037583;28;20229;-64
2022/06/08 06:46:02;;;;;;;3.27;2.67;;;;;;;;;;5037249;28;20561;-64
2022/06/08 06:48:28;;;;;;;4.43;2.53;;;;;;;;;;5054973;28;20195;-64
2022/06/08 06:50:54;;;;;;;4.03;2.30;;;;;;;;;;5037241;28;20178;-65
2022/06/08 06:53:20;;;;;;;2.53;2.33;;;;;;;;;;5055605;28;20181;-65
2022/06/08 06:55:46;;;;;;;2.60;2.23;;;;;;;;;;5037298;28;20213;-64
2022/06/08 06:58:12;;;;;;;2.90;2.53;;;;;;;;;;5054776;28;20661;-65
2022/06/08 07:00:38;;;;;;;2.30;2.10;;;;;;;;;;5037097;28;20630;-64
2022/06/08 07:03:04;;;;;;;2.40;1.93;;;;;;;;;;5055037;28;20201;-64
2022/06/08 07:05:32;;;;;;;2.23;2.03;;;;;;;;;;5037104;28;20178;-65
2022/06/08 07:07:58;;;;;;;3.33;2.40;;;;;;;;;;5037369;28;20178;-64
2022/06/08 07:10:24;;;;;;;2.20;2.00;;;;;;;;;;5037750;28;20293;-64
2022/06/08 07:12:50;;;;;;;2.37;2.17;;;;;;;;;;5036491;28;20222;-65
2022/06/08 07:15:17;;;;;;;7.60;2.40;;;;;;;;;;5036256;28;20189;-65
2022/06/08 07:17:43;;;;;;;2.20;2.00;;;;;;;;;;5036995;28;20181;-64
2022/06/08 07:20:10;;;;;;;2.87;2.10;;;;;;;;;;5054476;28;20294;-65
2022/06/08 07:22:36;;;;;;;3.07;2.37;;;;;;;;;;5054426;28;20179;-65
2022/06/08 07:25:03;;;;;;;3.10;2.27;;;;;;;;;;5054434;28;20186;-65
2022/06/08 07:27:29;;;;;;;2.53;2.07;;;;;;;;;;5054317;28;20175;-65
2022/06/08 07:29:55;;;;;;;2.40;2.20;;;;;;;;;;5054269;28;20563;-65
2022/06/08 07:32:21;;;;;;;2.83;2.17;;;;;;;;;;5054556;28;20655;-66
2022/06/08 07:34:47;;;;;;;2.87;2.60;;;;;;;;;;5036268;28;20182;-65
2022/06/08 07:37:13;;;;;;;4.17;2.10;;;;;;;;;;5036372;28;20187;-65
2022/06/08 07:39:39;;;;;;;2.90;2.37;;;;;;;;;;5053885;28;20251;-65
2022/06/08 07:42:05;;;;;;;2.30;2.10;;;;;;;;;;5054169;28;20185;-65
2022/06/08 07:44:31;;;;;;;2.47;2.00;;;;;;;;;;5054011;28;20177;-66
2022/06/08 07:46:57;;;;;;;2.63;2.10;;;;;;;;;;5036114;28;20175;-65
2022/06/08 07:49:36;;;;;;;3.37;2.07;;;;;;;;;;5054156;28;20545;-65
2022/06/08 07:52:02;;;;;;;2.13;1.83;;;;;;;;;;5054129;28;20163;-65
2022/06/08 07:54:30;;;;;;;4.60;2.30;;;;;;;;;;5053902;28;20244;-65
2022/06/08 07:56:57;;;;;;;2.63;2.07;;;;;;;;;;5054085;28;20198;-65
2022/06/08 07:59:24;;;;;;;7.27;2.50;;;;;;;;;;5053731;28;20213;-65
2022/06/08 08:01:50;;;;;;;2.77;2.53;;;;;;;;;;5054027;28;20175;-65
2022/06/08 08:04:16;;;;;;;4.37;2.60;;;;;;;;;;5054316;28;20178;-65
2022/06/08 08:06:42;;;;;;;2.77;2.27;;;;;;;;;;5053660;28;20261;-65
2022/06/08 08:09:13;;;;;;;2.83;2.20;;;;;;;;;;5053850;28;20273;-65
2022/06/08 08:11:40;;;;;;;2.77;2.13;;;;;;;;;;5054090;28;20567;-65
2022/06/08 08:14:06;;;;;;;2.97;2.13;;;;;;;;;;5053743;28;20179;-65
2022/06/08 08:16:32;;;;;;;2.50;1.90;;;;;;;;;;5053570;28;20189;-65
2022/06/08 08:18:58;;;;;;;2.43;1.90;;;;;;;;;;5053699;28;20206;-65
2022/06/08 08:21:24;;;;;;;2.93;1.83;;;;;;;;;;5053564;28;20627;-65
2022/06/08 08:23:50;;;;;;;3.20;1.83;;;;;;;;;;5053483;28;20178;-65
2022/06/08 08:26:16;;;;;;;3.10;1.90;;;;;;;;;;5053643;28;20242;-65
2022/06/08 08:28:42;;;;;;;3.63;2.17;;;;;;;;;;5035484;28;20716;-65
2022/06/08 08:31:08;;;;;;;2.67;2.00;;;;;;;;;;5035635;28;20182;-65
2022/06/08 08:33:34;;;;;;;4.57;3.90;;;;;;;;;;5053438;28;20178;-65
2022/06/08 08:36:00;;;;;;;5.17;3.00;;;;;;;;;;5053374;28;20175;-65
2022/06/08 08:38:26;;;;;;;5.27;2.73;;;;;;;;;;5053105;28;20697;-65
2022/06/08 08:40:54;;;;;;;7.37;2.27;;;;;;;;;;5035522;28;20175;-65
2022/06/08 08:43:22;;;;;;;4.50;2.87;;;;;;;;;;5053412;28;20174;-64
2022/06/08 08:45:56;;;;;;;4.73;3.33;;;;;;;;;;5053544;28;20233;-64
2022/06/08 08:48:27;;;;;;;6.47;3.60;;;;;;;;;;5053398;28;20194;-64
2022/06/08 08:51:04;;;;;;;4.63;3.50;;;;;;;;;;5035335;28;20190;-65
2022/06/08 08:53:34;;;;;;;6.97;3.87;;;;;;;;;;5053959;28;20204;-64
2022/06/08 08:56:13;;;;;;;5.33;2.80;;;;;;;;;;5053528;28;20600;-64
2022/06/08 08:58:41;;;;;;;4.80;3.00;;;;;;;;;;5053419;28;20692;-64
2022/06/08 09:01:16;;;;;;;3.87;2.80;;;;;;;;;;5053075;28;20331;-64
2022/06/08 09:03:44;;;;;;;7.70;4.20;;;;;;;;;;5053076;28;20182;-65
2022/06/08 09:06:12;;;;;;;7.73;3.50;;;;;;;;;;5035280;28;20182;-65
2022/06/08 09:08:39;;;;;;;4.27;2.93;;;;;;;;;;5053170;28;20201;-64
2022/06/08 09:11:12;;;;;;;6.83;2.90;;;;;;;;;;5035275;28;20210;-65
2022/06/08 09:13:55;;;;;;;6.97;3.43;;;;;;;;;;5035958;28;20590;-64
2022/06/08 09:16:32;;;;;;;4.00;3.00;;;;;;;;;;5053112;28;20202;-65
2022/06/08 09:18:58;;;;;;;4.70;2.93;;;;;;;;;;5035041;28;20212;-65
2022/06/08 09:21:27;;;;;;;4.33;2.90;;;;;;;;;;5052915;28;20179;-65
2022/06/08 09:23:54;;;;;;;5.37;3.20;;;;;;;;;;5035055;28;20174;-65
2022/06/08 09:26:23;;;;;;;4.17;2.67;;;;;;;;;;5053371;28;20171;-65
2022/06/08 09:29:00;;;;;;;3.97;2.97;;;;;;;;;;5052760;28;20667;-65
2022/06/08 09:31:31;;;;;;;3.17;2.47;;;;;;;;;;5035082;28;20205;-65
2022/06/08 09:34:11;;;;;;;2.97;2.50;;;;;;;;;;5052935;28;20178;-65
2022/06/08 09:36:37;;;;;;;3.20;2.60;;;;;;;;;;5053128;28;20174;-66
2022/06/08 09:39:03;;;;;;;3.47;2.27;;;;;;;;;;5056197;28;20218;-65
2022/06/08 09:41:34;;;;;;;2.90;2.27;;;;;;;;;;5056728;28;20171;-66
2022/06/08 09:44:08;;;;;;;4.60;2.20;;;;;;;;;;5056803;28;20558;-65
2022/06/08 09:52:30;;;;;;;5.67;2.43;;;;;;;;;;5056812;28;20312;-64
2022/06/08 09:55:15;;;;;;;3.37;1.97;;;;;;;;;;5038559;28;20622;-65
2022/06/08 09:57:43;;;;;;;5.03;1.87;;;;;;;;;;5056183;28;20182;-65
2022/06/08 10:00:31;;;;;;;2.93;1.80;;;;;;;;;;5056389;28;20206;-69
2022/06/08 10:03:06;;;;;;;2.80;2.37;;;;;;;;;;5057593;28;20178;-65
2022/06/08 10:05:31;;;;;;;3.43;1.83;;;;;;;;;;5056166;28;20150;-65
2022/06/08 10:08:06;;;;;;;3.70;1.97;;;;;;;;;;5038259;28;20641;-65
2022/06/08 10:10:34;;;;;;;3.80;1.97;;;;;;;;;;5056484;28;20173;-67
2022/06/08 10:13:01;;;;;;;2.57;2.27;;;;;;;;;;5038267;28;20189;-65
2022/06/08 10:15:37;;;;;;;4.00;1.93;;;;;;;;;;5055849;28;20533;-65
2022/06/08 10:18:19;;;;;;;2.13;1.77;;;;;;;;;;5055816;28;20260;-65
2022/06/08 10:20:47;;;;;;;1.97;1.70;;;;;;;;;;5055751;28;20206;-64
2022/06/08 10:23:31;;;;;;;3.70;1.97;;;;;;;;;;5055794;28;20178;-65
2022/06/08 10:26:14;;;;;;;2.33;1.83;;;;;;;;;;5037843;28;20181;-64
2022/06/08 10:28:46;;;;;;;3.30;2.13;;;;;;;;;;5037872;28;20256;-64
2022/06/08 10:31:23;;;;;;;10.00;2.40;;;;;;;;;;5038023;28;20179;-65
2022/06/08 10:33:49;;;;;;;3.17;1.93;;;;;;;;;;5037610;28;20174;-65
2022/06/08 10:36:15;;;;;;;1.83;1.50;;;;;;;;;;5037712;28;20318;-65
2022/06/08 10:38:42;;;;;;;2.73;1.60;;;;;;;;;;5055173;28;20214;-64
2022/06/08 10:42:39;;;;;;;4.63;1.97;;;;;;;;;;5037540;28;20179;-65
2022/06/08 10:43:59;;;;;;;2.07;1.40;;;;;;;;;;5055071;28;20663;-65
2022/06/08 10:46:43;;;;;;;2.93;2.23;;;;;;;;;;5055461;28;20185;-65
2022/06/08 10:49:19;;;;;;;7.07;2.43;;;;;;;;;;5054997;28;20195;-65
2022/06/08 10:52:05;;;;;;;3.00;2.33;;;;;;;;;;5037296;28;20224;-65
2022/06/08 10:57:35;;;;;;;6.73;3.10;;;;;;;;;;5055523;28;20178;-66
2022/06/08 11:00:20;;;;;;;2.90;2.63;;;;;;;;;;5036913;28;20214;-66
2022/06/08 11:03:04;;;;;;;6.67;3.20;;;;;;;;;;5055322;28;20185;-65
2022/06/08 11:05:37;;;;;;;6.00;3.10;;;;;;;;;;5055021;28;20197;-66
2022/06/08 11:08:10;;;;;;;8.73;3.40;;;;;;;;;;5055141;28;20170;-65
2022/06/08 11:10:47;;;;;;;5.43;3.50;;;;;;;;;;5054784;28;20635;-65
2022/06/08 11:13:18;;;;;;;6.43;3.07;;;;;;;;;;5054928;28;20162;-65
2022/06/08 11:15:54;;;;;;;7.20;3.20;;;;;;;;;;5036680;28;20582;-65
2022/06/08 11:18:20;;;;;;;6.03;3.57;;;;;;;;;;5054496;28;20595;-65
2022/06/08 11:20:48;;;;;;;6.97;3.20;;;;;;;;;;5054941;28;20206;-65
2022/06/08 11:23:54;;;;;;;5.37;3.50;;;;;;;;;;5036875;28;20636;-65
2022/06/08 11:26:21;;;;;;;10.80;3.90;;;;;;;;;;4993168;28;20239;-65
2022/06/08 11:28:50;;;;;;;5.20;3.17;;;;;;;;;;4993319;28;20732;-65
2022/06/08 11:31:26;;;;;;;5.47;3.63;;;;;;;;;;5024618;28;20651;-65
2022/06/08 11:34:07;;;;;;;7.23;3.60;;;;;;;;;;5054486;28;20227;-65
2022/06/08 11:36:42;;;;;;;8.97;3.40;;;;;;;;;;5054481;28;20208;-65
2022/06/08 11:39:19;;;;;;;6.43;3.87;;;;;;;;;;5054206;28;20301;-65
2022/06/08 11:41:56;;;;;;;5.23;3.00;;;;;;;;;;5036306;28;20183;-65
2022/06/08 11:44:22;;;;;;;6.13;3.07;;;;;;;;;;5054687;28;20169;-66
2022/06/08 11:46:50;;;;;;;6.23;3.80;;;;;;;;;;5054349;28;20171;-66
2022/06/08 11:49:34;;;;;;;4.37;3.10;;;;;;;;;;5053993;28;20729;-65
2022/06/08 11:52:16;;;;;;;8.53;3.73;;;;;;;;;;5053977;28;20181;-66
2022/06/08 11:54:42;;;;;;;7.17;3.30;;;;;;;;;;5054372;28;20170;-66
2022/06/08 11:57:13;;;;;;;5.50;3.50;;;;;;;;;;5054437;28;20201;-66
2022/06/08 11:59:41;;;;;;;8.07;3.20;;;;;;;;;;5053045;28;20280;-66
2022/06/08 12:02:42;;;;;;;3.20;2.67;;;;;;;;;;5054550;28;20261;-66
2022/06/08 12:05:08;;;;;;;8.83;3.63;;;;;;;;;;4992513;28;20266;-66
2022/06/08 12:07:50;;;;;;;7.60;3.80;;;;;;;;;;5024281;28;20186;-66
2022/06/08 12:10:21;;;;;;;8.17;3.70;;;;;;;;;;5036027;28;20241;-66
2022/06/08 12:12:48;;;;;;;6.77;3.10;;;;;;;;;;5036187;28;20224;-66
2022/06/08 12:15:33;;;;;;;5.20;3.43;;;;;;;;;;5053988;28;20232;-66
2022/06/08 12:18:20;;;;;;;6.77;3.53;;;;;;;;;;5053745;28;20576;-66
2022/06/08 12:20:46;;;;;;;8.33;3.40;;;;;;;;;;5053511;28;20194;-66
2022/06/08 12:23:11;;;;;;;5.63;3.40;;;;;;;;;;5053628;28;20179;-66
2022/06/08 12:25:37;;;;;;;6.10;2.70;;;;;;;;;;5053465;28;20187;-66
2022/06/08 12:28:03;;;;;;;3.17;2.50;;;;;;;;;;5035478;28;20183;-67
2022/06/08 12:30:44;;;;;;;9.13;3.43;;;;;;;;;;5035415;28;20249;-66
2022/06/08 12:33:16;;;;;;;5.30;2.70;;;;;;;;;;5053542;28;20182;-66
2022/06/08 12:35:56;;;;;;;3.43;2.50;;;;;;;;;;5053301;28;20686;-65
2022/06/08 12:38:22;;;;;;;3.13;2.37;;;;;;;;;;5053090;28;20259;-65
2022/06/08 12:41:05;;;;;;;5.83;2.93;;;;;;;;;;5035254;28;20674;-66
2022/06/08 12:43:36;;;;;;;4.23;2.80;;;;;;;;;;5053195;28;20151;-65
2022/06/08 12:46:17;;;;;;;3.40;2.50;;;;;;;;;;5053364;28;20178;-65
2022/06/08 12:48:46;;;;;;;4.23;2.40;;;;;;;;;;5035182;28;20202;-65
2022/06/08 12:51:30;;;;;;;4.10;2.50;;;;;;;;;;5053244;28;20599;-65
2022/06/08 12:54:00;;;;;;;6.00;2.40;;;;;;;;;;5053472;28;20175;-66
2022/06/08 12:56:28;;;;;;;3.83;3.17;;;;;;;;;;5053961;28;20196;-65
2022/06/08 12:58:55;;;;;;;5.17;2.50;;;;;;;;;;5052988;28;20206;-65
2022/06/08 13:01:22;;;;;;;5.77;2.40;;;;;;;;;;5053106;28;20171;-65
2022/06/08 13:03:49;;;;;;;5.87;2.97;;;;;;;;;;5035311;28;20182;-65
2022/06/08 13:06:14;;;;;;;5.03;2.67;;;;;;;;;;5053193;28;20170;-66
2022/06/08 13:08:41;;;;;;;4.30;2.63;;;;;;;;;;5035384;28;20202;-66
2022/06/08 13:11:11;;;;;;;6.63;2.70;;;;;;;;;;5036406;28;20185;-65
2022/06/08 13:13:38;;;;;;;2.57;2.33;;;;;;;;;;5057530;28;20166;-65
2022/06/08 13:16:07;;;;;;;6.13;2.70;;;;;;;;;;5056934;28;20174;-66
2022/06/08 13:18:35;;;;;;;4.37;2.97;;;;;;;;;;5038991;28;20675;-65
2022/06/08 13:21:02;;;;;;;6.43;3.17;;;;;;;;;;5056959;28;20258;-65
2022/06/08 13:23:28;;;;;;;5.67;2.93;;;;;;;;;;5057023;28;20261;-66
2022/06/08 13:26:02;;;;;;;4.60;2.73;;;;;;;;;;5056808;28;20217;-66
2022/06/08 13:28:30;;;;;;;5.07;3.23;;;;;;;;;;5056861;28;20536;-66
2022/06/08 13:30:57;;;;;;;3.90;2.40;;;;;;;;;;5056824;28;20170;-66
2022/06/08 13:36:21;;;;;;;4.90;2.90;;;;;;;;;;5057175;28;20170;-66
2022/06/08 13:38:47;;;;;;;4.20;2.90;;;;;;;;;;5056223;28;20238;-66
2022/06/08 13:41:14;;;;;;;5.63;3.47;;;;;;;;;;5056291;28;20604;-66
2022/06/08 13:43:40;;;;;;;6.63;3.50;;;;;;;;;;5038552;28;20183;-66
2022/06/08 13:46:08;;;;;;;7.80;3.70;;;;;;;;;;5056404;28;20638;-66
2022/06/08 13:48:34;;;;;;;7.30;3.57;;;;;;;;;;5056202;28;20290;-66
2022/06/08 13:51:00;;;;;;;11.97;7.23;;;;;;;;;;5056282;28;20185;-66
2022/06/08 13:53:27;;;;;;;6.27;3.30;;;;;;;;;;5056402;28;20175;-67
2022/06/08 13:55:54;;;;;;;9.60;3.50;;;;;;;;;;5038392;28;20182;-66
2022/06/08 13:58:21;;;;;;;7.20;3.83;;;;;;;;;;5056006;28;20653;-66
2022/06/08 14:00:50;;;;;;;4.63;3.60;;;;;;;;;;5055914;28;20202;-66
2022/06/08 14:03:19;;;;;;;3.37;3.00;;;;;;;;;;5038019;28;20232;-67
2022/06/08 14:14:09;;;;;;;7.90;4.20;;;;;;;;;;5056516;28;20189;-67
2022/06/08 14:16:36;;;;;;;3.23;2.20;;;;;;;;;;5055751;28;20182;-66
2022/06/08 14:19:08;;;;;;;4.40;1.93;;;;;;;;;;5055635;28;20202;-66
2022/06/08 14:21:34;;;;;;;5.77;1.83;;;;;;;;;;5055816;28;20583;-66
2022/06/08 14:24:01;;;;;;;4.23;1.90;;;;;;;;;;5037098;28;20178;-66
2022/06/08 14:26:28;;;;;;;3.10;1.83;;;;;;;;;;5037778;28;20174;-66
2022/06/08 14:28:55;;;;;;;3.73;2.03;;;;;;;;;;5055618;28;20202;-64
2022/06/08 14:31:29;;;;;;;3.27;2.23;;;;;;;;;;5037769;28;20269;-65
2022/06/08 14:33:56;;;;;;;9.33;2.73;;;;;;;;;;5037653;28;20175;-65
2022/06/08 14:36:23;;;;;;;2.40;2.20;;;;;;;;;;5055443;28;20189;-64
2022/06/08 14:38:49;;;;;;;3.10;2.63;;;;;;;;;;5037199;28;20304;-64
2022/06/08 14:41:15;;;;;;;3.37;2.67;;;;;;;;;;5037499;28;20603;-64
2022/06/08 14:43:42;;;;;;;5.10;2.40;;;;;;;;;;5037555;28;20178;-66
2022/06/08 14:46:10;;;;;;;5.17;2.67;;;;;;;;;;5055188;28;20257;-65
2022/06/08 14:48:38;;;;;;;2.60;2.40;;;;;;;;;;5037303;28;20286;-66
2022/06/08 14:51:05;;;;;;;2.93;2.00;;;;;;;;;;5037195;28;20639;-66
2022/06/08 14:53:31;;;;;;;4.70;2.30;;;;;;;;;;5055117;28;20179;-66
2022/06/08 14:58:43;;;;;;;3.03;2.33;;;;;;;;;;5055351;28;20209;-66
2022/06/08 15:01:13;;;;;;;2.47;2.13;;;;;;;;;;5055536;28;20171;-66
2022/06/08 15:03:39;;;;;;;3.90;2.17;;;;;;;;;;5054842;28;20198;-66
2022/06/08 15:06:05;;;;;;;6.07;2.63;;;;;;;;;;5037122;28;20659;-66
2022/06/08 15:08:31;;;;;;;5.17;2.57;;;;;;;;;;5055240;28;20349;-66
2022/06/08 15:13:45;;;;;;;4.17;3.70;;;;;;;;;;5055088;28;20209;-66
2022/06/08 15:16:12;;;;;;;3.97;2.93;;;;;;;;;;5055319;28;20553;-66
2022/06/08 15:18:38;;;;;;;3.10;2.73;;;;;;;;;;5054705;28;20191;-66